SARI METAR and TAF weather

Enter ICAO airport designator
Station Type Date Time Source
SARI METAR 2019/12/12 17:00 UTC NOAA

SARI 121700Z 05003KT 9999 SCT025 BKN200 30/22 Q1009


Station Type Date Time Source
SARI Decoded METAR 2019/12/12 17:00 UTC NOAA

Iguazu Aerodrome, Argentina (SARI) 25-44S 054-28W 270M
Dec 12, 2019 - 12:00 PM EST / 2019.12.12 1700 UTC
Wind: from the NE (050 degrees) at 3 MPH (3 KT):0
Visibility: greater than 7 mile(s):0
Sky conditions: mostly cloudy
Temperature: 86 F (30 C)
Heat index: 91.8 F (33.2 C):1
Dew Point: 71 F (22 C)
Relative Humidity: 62%
Pressure (altimeter): 29.80 in. Hg (1009 hPa)
ob: SARI 121700Z 05003KT 9999 SCT025 BKN200 30/22 Q1009
cycle: 17

Station Type Date Time Source
SARI TAF 2019/12/12 12:27 UTC NOAA

TAF SARI 121100Z 1212/1312 0500KT 9999 BKN020 TX31/1218Z TN20/1309Z
BECMG 1216/1218 20015G40KT 5000 TSRA BKN020 OVC040 FEW050CB PROB40 1218/1221 8000 -RA BKN020 BKN040

Example: see airport list